Danforth, South Dakota
Current Conditions -  °F | °C
As of 5:03 AM on Wednesday 26 Nov 2014 (Local Time) from KHON Reporting Station
Light Snow Light Snow  
Wind Chill:   Ceiling: 2400
Heat Index: 21°   Visibility: 1.2mi
Dew Point: 19°   Wind: 23mph
Humidity: 92%   Direction: 360°N
Pressure: 30.08"   Gusts: 31mph
Location:  44.3714°N, 98.681°W
Report Text: KHON 261103Z AUTO 36020G27KT 1 1/4SM -SN BR FEW009 BKN024 OVC036 M06/M07 A3008 RMK AO2 PK WND 35027/1100 PRESRR P0000 T10611072
Loading
Personal Weather Stations






























Interactive Weather Map New forecast layout! Learn more

10-Day Weather Forecast

Advertisements
Track Severe Weather on mobile